sensor_id;sensor_type;location;lat;lon;timestamp;P1;durP1;ratioP1;P2;durP2;ratioP2
60016;SDS011;45869;52.698;6.210;2023-04-21T00:01:23;26.15;;;20.30;;
60016;SDS011;45869;52.698;6.210;2023-04-21T00:03:49;24.50;;;19.60;;
60016;SDS011;45869;52.698;6.210;2023-04-21T00:06:15;24.23;;;18.38;;
60016;SDS011;45869;52.698;6.210;2023-04-21T00:08:46;24.75;;;18.90;;
60016;SDS011;45869;52.698;6.210;2023-04-21T00:11:12;27.50;;;19.02;;
60016;SDS011;45869;52.698;6.210;2023-04-21T00:13:39;24.85;;;19.70;;
60016;SDS011;45869;52.698;6.210;2023-04-21T00:16:05;26.30;;;20.02;;
60016;SDS011;45869;52.698;6.210;2023-04-21T00:18:32;25.92;;;20.70;;
60016;SDS011;45869;52.698;6.210;2023-04-21T00:20:58;29.67;;;20.48;;
60016;SDS011;45869;52.698;6.210;2023-04-21T00:23:27;27.08;;;20.52;;
60016;SDS011;45869;52.698;6.210;2023-04-21T00:25:53;24.50;;;19.13;;
60016;SDS011;45869;52.698;6.210;2023-04-21T00:28:22;25.85;;;19.45;;
60016;SDS011;45869;52.698;6.210;2023-04-21T00:30:48;25.08;;;19.85;;
60016;SDS011;45869;52.698;6.210;2023-04-21T00:33:14;30.60;;;20.40;;
60016;SDS011;45869;52.698;6.210;2023-04-21T00:35:43;24.48;;;18.73;;
60016;SDS011;45869;52.698;6.210;2023-04-21T00:38:09;25.73;;;18.90;;
60016;SDS011;45869;52.698;6.210;2023-04-21T00:40:35;25.88;;;18.92;;
60016;SDS011;45869;52.698;6.210;2023-04-21T00:43:06;23.20;;;18.23;;
60016;SDS011;45869;52.698;6.210;2023-04-21T00:45:32;23.90;;;17.88;;
60016;SDS011;45869;52.698;6.210;2023-04-21T00:47:58;26.85;;;18.75;;
60016;SDS011;45869;52.698;6.210;2023-04-21T00:50:27;25.63;;;19.30;;
60016;SDS011;45869;52.698;6.210;2023-04-21T00:52:53;25.38;;;19.00;;
60016;SDS011;45869;52.698;6.210;2023-04-21T00:55:20;26.10;;;18.75;;
60016;SDS011;45869;52.698;6.210;2023-04-21T00:57:46;25.67;;;18.35;;
60016;SDS011;45869;52.698;6.210;2023-04-21T01:00:13;25.67;;;18.10;;
60016;SDS011;45869;52.698;6.210;2023-04-21T01:02:39;23.13;;;17.38;;
60016;SDS011;45869;52.698;6.210;2023-04-21T01:05:07;27.27;;;18.42;;
60016;SDS011;45869;52.698;6.210;2023-04-21T01:07:34;24.80;;;18.00;;
60016;SDS011;45869;52.698;6.210;2023-04-21T01:10:00;24.80;;;17.65;;
60016;SDS011;45869;52.698;6.210;2023-04-21T01:12:26;22.73;;;16.52;;
60016;SDS011;45869;52.698;6.210;2023-04-21T01:14:52;23.10;;;17.20;;
60016;SDS011;45869;52.698;6.210;2023-04-21T01:17:21;23.58;;;16.98;;
60016;SDS011;45869;52.698;6.210;2023-04-21T01:19:49;22.52;;;16.20;;
60016;SDS011;45869;52.698;6.210;2023-04-21T01:22:15;24.15;;;16.65;;
60016;SDS011;45869;52.698;6.210;2023-04-21T01:24:45;21.65;;;16.73;;
60016;SDS011;45869;52.698;6.210;2023-04-21T01:27:13;21.00;;;15.88;;
60016;SDS011;45869;52.698;6.210;2023-04-21T01:29:40;20.98;;;15.68;;
60016;SDS011;45869;52.698;6.210;2023-04-21T01:32:07;23.08;;;16.13;;
60016;SDS011;45869;52.698;6.210;2023-04-21T01:34:33;21.73;;;15.73;;
60016;SDS011;45869;52.698;6.210;2023-04-21T01:36:59;21.52;;;15.60;;
60016;SDS011;45869;52.698;6.210;2023-04-21T01:39:25;22.50;;;16.38;;
60016;SDS011;45869;52.698;6.210;2023-04-21T01:41:52;21.45;;;15.90;;
60016;SDS011;45869;52.698;6.210;2023-04-21T01:44:19;22.38;;;15.80;;
60016;SDS011;45869;52.698;6.210;2023-04-21T01:46:45;22.83;;;15.55;;
60016;SDS011;45869;52.698;6.210;2023-04-21T01:49:14;20.20;;;13.82;;
60016;SDS011;45869;52.698;6.210;2023-04-21T01:51:40;24.20;;;15.32;;
60016;SDS011;45869;52.698;6.210;2023-04-21T01:54:06;21.17;;;14.25;;
60016;SDS011;45869;52.698;6.210;2023-04-21T01:56:32;18.92;;;14.70;;
60016;SDS011;45869;52.698;6.210;2023-04-21T01:58:58;22.35;;;15.88;;
60016;SDS011;45869;52.698;6.210;2023-04-21T02:01:24;22.58;;;14.98;;
60016;SDS011;45869;52.698;6.210;2023-04-21T02:03:50;21.83;;;14.90;;
60016;SDS011;45869;52.698;6.210;2023-04-21T02:06:16;20.75;;;14.68;;
60016;SDS011;45869;52.698;6.210;2023-04-21T02:08:42;19.90;;;14.82;;
60016;SDS011;45869;52.698;6.210;2023-04-21T02:11:08;22.20;;;14.10;;
60016;SDS011;45869;52.698;6.210;2023-04-21T02:13:34;21.67;;;14.60;;
60016;SDS011;45869;52.698;6.210;2023-04-21T02:16:00;18.98;;;14.07;;
60016;SDS011;45869;52.698;6.210;2023-04-21T02:18:26;18.35;;;13.98;;
60016;SDS011;45869;52.698;6.210;2023-04-21T02:20:53;19.77;;;14.38;;
60016;SDS011;45869;52.698;6.210;2023-04-21T02:23:20;21.75;;;14.38;;
60016;SDS011;45869;52.698;6.210;2023-04-21T02:25:46;17.77;;;13.68;;
60016;SDS011;45869;52.698;6.210;2023-04-21T02:28:12;19.83;;;13.73;;
60016;SDS011;45869;52.698;6.210;2023-04-21T02:30:38;19.90;;;14.38;;
60016;SDS011;45869;52.698;6.210;2023-04-21T02:33:04;18.35;;;13.25;;
60016;SDS011;45869;52.698;6.210;2023-04-21T02:35:33;18.20;;;13.82;;
60016;SDS011;45869;52.698;6.210;2023-04-21T02:37:59;19.35;;;13.65;;
60016;SDS011;45869;52.698;6.210;2023-04-21T02:40:31;20.05;;;13.55;;
60016;SDS011;45869;52.698;6.210;2023-04-21T02:42:57;18.77;;;13.45;;
60016;SDS011;45869;52.698;6.210;2023-04-21T02:45:23;18.42;;;12.85;;
60016;SDS011;45869;52.698;6.210;2023-04-21T02:47:49;15.77;;;12.27;;
60016;SDS011;45869;52.698;6.210;2023-04-21T02:50:15;16.92;;;13.10;;
60016;SDS011;45869;52.698;6.210;2023-04-21T02:52:41;19.70;;;12.77;;
60016;SDS011;45869;52.698;6.210;2023-04-21T02:55:07;16.88;;;12.55;;
60016;SDS011;45869;52.698;6.210;2023-04-21T02:57:33;17.20;;;12.13;;
60016;SDS011;45869;52.698;6.210;2023-04-21T02:59:59;20.88;;;12.70;;
60016;SDS011;45869;52.698;6.210;2023-04-21T03:02:25;16.15;;;12.15;;
60016;SDS011;45869;52.698;6.210;2023-04-21T03:04:51;17.02;;;12.75;;
60016;SDS011;45869;52.698;6.210;2023-04-21T03:07:18;17.83;;;12.70;;
60016;SDS011;45869;52.698;6.210;2023-04-21T03:09:44;16.10;;;12.40;;
60016;SDS011;45869;52.698;6.210;2023-04-21T03:12:10;17.45;;;12.90;;
60016;SDS011;45869;52.698;6.210;2023-04-21T03:14:39;17.45;;;12.93;;
60016;SDS011;45869;52.698;6.210;2023-04-21T03:17:05;18.35;;;12.18;;
60016;SDS011;45869;52.698;6.210;2023-04-21T03:19:31;18.65;;;12.77;;
60016;SDS011;45869;52.698;6.210;2023-04-21T03:21:57;18.67;;;11.95;;
60016;SDS011;45869;52.698;6.210;2023-04-21T03:24:23;16.23;;;11.77;;
60016;SDS011;45869;52.698;6.210;2023-04-21T03:26:49;16.60;;;12.18;;
60016;SDS011;45869;52.698;6.210;2023-04-21T03:29:15;18.30;;;12.85;;
60016;SDS011;45869;52.698;6.210;2023-04-21T03:31:41;16.60;;;11.70;;
60016;SDS011;45869;52.698;6.210;2023-04-21T03:34:10;15.25;;;11.95;;
60016;SDS011;45869;52.698;6.210;2023-04-21T03:36:35;21.73;;;12.10;;
60016;SDS011;45869;52.698;6.210;2023-04-21T03:39:01;18.00;;;12.73;;
60016;SDS011;45869;52.698;6.210;2023-04-21T03:41:28;20.45;;;11.13;;
60016;SDS011;45869;52.698;6.210;2023-04-21T03:43:54;15.90;;;11.20;;
60016;SDS011;45869;52.698;6.210;2023-04-21T03:46:20;15.38;;;11.43;;
60016;SDS011;45869;52.698;6.210;2023-04-21T03:48:47;14.05;;;11.10;;
60016;SDS011;45869;52.698;6.210;2023-04-21T03:51:13;15.27;;;11.38;;
60016;SDS011;45869;52.698;6.210;2023-04-21T03:53:39;19.25;;;11.68;;
60016;SDS011;45869;52.698;6.210;2023-04-21T03:56:09;15.90;;;10.95;;
60016;SDS011;45869;52.698;6.210;2023-04-21T03:58:35;17.02;;;11.38;;
60016;SDS011;45869;52.698;6.210;2023-04-21T04:01:01;17.85;;;11.65;;
60016;SDS011;45869;52.698;6.210;2023-04-21T04:03:27;15.52;;;10.63;;
60016;SDS011;45869;52.698;6.210;2023-04-21T04:05:53;15.55;;;11.02;;
60016;SDS011;45869;52.698;6.210;2023-04-21T04:08:20;16.67;;;11.00;;
60016;SDS011;45869;52.698;6.210;2023-04-21T04:10:46;15.27;;;10.48;;
60016;SDS011;45869;52.698;6.210;2023-04-21T04:13:12;15.25;;;10.82;;
60016;SDS011;45869;52.698;6.210;2023-04-21T04:15:38;15.40;;;10.20;;
60016;SDS011;45869;52.698;6.210;2023-04-21T04:18:04;17.27;;;10.45;;
60016;SDS011;45869;52.698;6.210;2023-04-21T04:20:30;14.20;;;10.65;;
60016;SDS011;45869;52.698;6.210;2023-04-21T04:22:56;14.93;;;11.10;;
60016;SDS011;45869;52.698;6.210;2023-04-21T04:25:22;14.82;;;10.25;;
60016;SDS011;45869;52.698;6.210;2023-04-21T04:27:48;21.58;;;10.95;;
60016;SDS011;45869;52.698;6.210;2023-04-21T04:30:14;15.77;;;10.75;;
60016;SDS011;45869;52.698;6.210;2023-04-21T04:32:41;14.65;;;10.73;;
60016;SDS011;45869;52.698;6.210;2023-04-21T04:35:09;14.35;;;10.27;;
60016;SDS011;45869;52.698;6.210;2023-04-21T04:37:39;15.63;;;11.55;;
60016;SDS011;45869;52.698;6.210;2023-04-21T04:40:06;16.05;;;11.00;;
60016;SDS011;45869;52.698;6.210;2023-04-21T04:42:38;18.15;;;10.90;;
60016;SDS011;45869;52.698;6.210;2023-04-21T04:45:05;18.85;;;10.85;;
60016;SDS011;45869;52.698;6.210;2023-04-21T04:47:36;14.30;;;10.57;;
60016;SDS011;45869;52.698;6.210;2023-04-21T04:50:02;14.73;;;10.23;;
60016;SDS011;45869;52.698;6.210;2023-04-21T04:52:28;13.70;;;9.80;;
60016;SDS011;45869;52.698;6.210;2023-04-21T04:54:54;14.32;;;10.55;;
60016;SDS011;45869;52.698;6.210;2023-04-21T04:57:20;13.50;;;10.15;;
60016;SDS011;45869;52.698;6.210;2023-04-21T04:59:46;16.33;;;10.82;;
60016;SDS011;45869;52.698;6.210;2023-04-21T05:02:13;15.98;;;10.23;;
60016;SDS011;45869;52.698;6.210;2023-04-21T05:04:39;15.00;;;10.13;;
60016;SDS011;45869;52.698;6.210;2023-04-21T05:07:05;14.25;;;10.75;;
60016;SDS011;45869;52.698;6.210;2023-04-21T05:09:32;15.07;;;10.48;;
60016;SDS011;45869;52.698;6.210;2023-04-21T05:11:58;16.88;;;10.40;;
60016;SDS011;45869;52.698;6.210;2023-04-21T05:14:25;15.10;;;10.15;;
60016;SDS011;45869;52.698;6.210;2023-04-21T05:16:51;12.73;;;9.75;;
60016;SDS011;45869;52.698;6.210;2023-04-21T05:19:17;14.50;;;10.13;;
60016;SDS011;45869;52.698;6.210;2023-04-21T05:21:43;16.70;;;11.02;;
60016;SDS011;45869;52.698;6.210;2023-04-21T05:24:09;16.50;;;9.70;;
60016;SDS011;45869;52.698;6.210;2023-04-21T05:26:35;19.15;;;9.68;;
60016;SDS011;45869;52.698;6.210;2023-04-21T05:29:01;15.65;;;10.05;;
60016;SDS011;45869;52.698;6.210;2023-04-21T05:31:27;16.75;;;10.75;;
60016;SDS011;45869;52.698;6.210;2023-04-21T05:33:53;18.33;;;10.27;;
60016;SDS011;45869;52.698;6.210;2023-04-21T05:36:20;15.07;;;10.43;;
60016;SDS011;45869;52.698;6.210;2023-04-21T05:38:46;15.95;;;10.00;;
60016;SDS011;45869;52.698;6.210;2023-04-21T05:41:12;12.93;;;9.77;;
60016;SDS011;45869;52.698;6.210;2023-04-21T05:43:38;18.23;;;10.90;;
60016;SDS011;45869;52.698;6.210;2023-04-21T05:46:07;13.48;;;9.35;;
60016;SDS011;45869;52.698;6.210;2023-04-21T05:48:33;14.63;;;10.80;;
60016;SDS011;45869;52.698;6.210;2023-04-21T05:51:09;14.75;;;9.95;;
60016;SDS011;45869;52.698;6.210;2023-04-21T05:53:36;14.73;;;10.13;;
60016;SDS011;45869;52.698;6.210;2023-04-21T05:56:02;13.60;;;9.63;;
60016;SDS011;45869;52.698;6.210;2023-04-21T05:58:28;15.68;;;9.82;;
60016;SDS011;45869;52.698;6.210;2023-04-21T06:00:54;15.38;;;9.65;;
60016;SDS011;45869;52.698;6.210;2023-04-21T06:03:20;15.93;;;9.75;;
60016;SDS011;45869;52.698;6.210;2023-04-21T06:05:46;15.77;;;9.35;;
60016;SDS011;45869;52.698;6.210;2023-04-21T06:08:12;17.25;;;9.82;;
60016;SDS011;45869;52.698;6.210;2023-04-21T06:10:38;15.90;;;9.85;;
60016;SDS011;45869;52.698;6.210;2023-04-21T06:13:04;15.88;;;10.07;;
60016;SDS011;45869;52.698;6.210;2023-04-21T06:15:30;14.40;;;9.35;;
60016;SDS011;45869;52.698;6.210;2023-04-21T06:17:56;14.98;;;9.60;;
60016;SDS011;45869;52.698;6.210;2023-04-21T06:20:22;14.95;;;9.95;;
60016;SDS011;45869;52.698;6.210;2023-04-21T06:22:48;15.15;;;10.20;;
60016;SDS011;45869;52.698;6.210;2023-04-21T06:25:17;15.05;;;9.93;;
60016;SDS011;45869;52.698;6.210;2023-04-21T06:27:43;13.98;;;9.55;;
60016;SDS011;45869;52.698;6.210;2023-04-21T06:30:09;12.82;;;9.27;;
60016;SDS011;45869;52.698;6.210;2023-04-21T06:32:36;15.45;;;9.65;;
60016;SDS011;45869;52.698;6.210;2023-04-21T06:35:02;14.10;;;9.25;;
60016;SDS011;45869;52.698;6.210;2023-04-21T06:37:28;14.07;;;9.48;;
60016;SDS011;45869;52.698;6.210;2023-04-21T06:39:54;13.60;;;9.65;;
60016;SDS011;45869;52.698;6.210;2023-04-21T06:42:23;14.35;;;9.07;;
60016;SDS011;45869;52.698;6.210;2023-04-21T06:44:49;16.52;;;10.38;;
60016;SDS011;45869;52.698;6.210;2023-04-21T06:47:15;12.75;;;9.48;;
60016;SDS011;45869;52.698;6.210;2023-04-21T06:49:44;14.82;;;9.80;;
60016;SDS011;45869;52.698;6.210;2023-04-21T06:52:10;14.20;;;9.55;;
60016;SDS011;45869;52.698;6.210;2023-04-21T06:54:36;14.65;;;9.48;;
60016;SDS011;45869;52.698;6.210;2023-04-21T06:57:02;16.88;;;10.02;;
60016;SDS011;45869;52.698;6.210;2023-04-21T06:59:28;14.95;;;9.70;;
60016;SDS011;45869;52.698;6.210;2023-04-21T07:01:54;14.32;;;10.23;;
60016;SDS011;45869;52.698;6.210;2023-04-21T07:04:20;16.05;;;9.88;;
60016;SDS011;45869;52.698;6.210;2023-04-21T07:06:46;15.18;;;10.00;;
60016;SDS011;45869;52.698;6.210;2023-04-21T07:09:16;13.73;;;9.55;;
60016;SDS011;45869;52.698;6.210;2023-04-21T07:11:45;14.32;;;9.75;;
60016;SDS011;45869;52.698;6.210;2023-04-21T07:14:11;14.77;;;9.50;;
60016;SDS011;45869;52.698;6.210;2023-04-21T07:16:37;11.95;;;8.77;;
60016;SDS011;45869;52.698;6.210;2023-04-21T07:19:03;15.18;;;9.52;;
60016;SDS011;45869;52.698;6.210;2023-04-21T07:21:29;15.27;;;9.15;;
60016;SDS011;45869;52.698;6.210;2023-04-21T07:24:00;13.65;;;9.00;;
60016;SDS011;45869;52.698;6.210;2023-04-21T07:26:26;12.65;;;9.00;;
60016;SDS011;45869;52.698;6.210;2023-04-21T07:28:52;13.05;;;9.20;;
60016;SDS011;45869;52.698;6.210;2023-04-21T07:31:22;16.20;;;9.45;;
60016;SDS011;45869;52.698;6.210;2023-04-21T07:33:48;14.50;;;9.38;;
60016;SDS011;45869;52.698;6.210;2023-04-21T07:36:14;14.57;;;9.30;;
60016;SDS011;45869;52.698;6.210;2023-04-21T07:38:43;13.15;;;9.10;;
60016;SDS011;45869;52.698;6.210;2023-04-21T07:41:09;15.18;;;9.90;;
60016;SDS011;45869;52.698;6.210;2023-04-21T07:43:38;14.65;;;8.98;;
60016;SDS011;45869;52.698;6.210;2023-04-21T07:46:05;13.20;;;9.27;;
60016;SDS011;45869;52.698;6.210;2023-04-21T07:48:31;13.55;;;9.63;;
60016;SDS011;45869;52.698;6.210;2023-04-21T07:51:00;15.70;;;9.55;;
60016;SDS011;45869;52.698;6.210;2023-04-21T07:53:30;11.90;;;9.30;;
60016;SDS011;45869;52.698;6.210;2023-04-21T07:55:56;14.85;;;9.02;;
60016;SDS011;45869;52.698;6.210;2023-04-21T07:58:22;13.30;;;9.05;;
60016;SDS011;45869;52.698;6.210;2023-04-21T08:00:48;13.15;;;9.30;;
60016;SDS011;45869;52.698;6.210;2023-04-21T08:03:14;14.05;;;8.93;;
60016;SDS011;45869;52.698;6.210;2023-04-21T08:05:40;14.18;;;9.00;;
60016;SDS011;45869;52.698;6.210;2023-04-21T08:08:06;12.45;;;8.75;;
60016;SDS011;45869;52.698;6.210;2023-04-21T08:10:35;12.82;;;9.15;;
60016;SDS011;45869;52.698;6.210;2023-04-21T08:13:01;13.35;;;8.80;;
60016;SDS011;45869;52.698;6.210;2023-04-21T08:15:30;14.38;;;9.02;;
60016;SDS011;45869;52.698;6.210;2023-04-21T08:17:56;16.65;;;8.75;;
60016;SDS011;45869;52.698;6.210;2023-04-21T08:20:25;12.52;;;9.25;;
60016;SDS011;45869;52.698;6.210;2023-04-21T08:22:51;13.57;;;9.43;;
60016;SDS011;45869;52.698;6.210;2023-04-21T08:25:17;12.98;;;9.02;;
60016;SDS011;45869;52.698;6.210;2023-04-21T08:27:46;14.70;;;9.18;;
60016;SDS011;45869;52.698;6.210;2023-04-21T08:30:18;14.27;;;9.88;;
60016;SDS011;45869;52.698;6.210;2023-04-21T08:32:47;13.85;;;9.20;;
60016;SDS011;45869;52.698;6.210;2023-04-21T08:35:13;13.20;;;9.23;;
60016;SDS011;45869;52.698;6.210;2023-04-21T08:37:39;13.80;;;9.63;;
60016;SDS011;45869;52.698;6.210;2023-04-21T08:40:12;12.48;;;9.20;;
60016;SDS011;45869;52.698;6.210;2023-04-21T08:42:38;13.48;;;9.35;;
60016;SDS011;45869;52.698;6.210;2023-04-21T08:45:04;14.68;;;9.55;;
60016;SDS011;45869;52.698;6.210;2023-04-21T08:47:33;13.85;;;9.40;;
60016;SDS011;45869;52.698;6.210;2023-04-21T08:49:59;16.50;;;9.07;;
60016;SDS011;45869;52.698;6.210;2023-04-21T08:52:25;15.40;;;9.40;;
60016;SDS011;45869;52.698;6.210;2023-04-21T08:54:51;16.20;;;9.45;;
60016;SDS011;45869;52.698;6.210;2023-04-21T08:57:19;14.75;;;9.43;;
60016;SDS011;45869;52.698;6.210;2023-04-21T08:59:45;13.27;;;9.02;;
60016;SDS011;45869;52.698;6.210;2023-04-21T09:02:12;12.13;;;9.40;;
60016;SDS011;45869;52.698;6.210;2023-04-21T09:04:42;15.63;;;9.02;;
60016;SDS011;45869;52.698;6.210;2023-04-21T09:07:08;13.95;;;9.45;;
60016;SDS011;45869;52.698;6.210;2023-04-21T09:09:53;12.55;;;8.73;;
60016;SDS011;45869;52.698;6.210;2023-04-21T09:12:19;16.25;;;9.77;;
60016;SDS011;45869;52.698;6.210;2023-04-21T09:14:45;15.90;;;9.93;;
60016;SDS011;45869;52.698;6.210;2023-04-21T09:17:13;14.20;;;9.30;;
60016;SDS011;45869;52.698;6.210;2023-04-21T09:19:39;13.35;;;9.15;;
60016;SDS011;45869;52.698;6.210;2023-04-21T09:22:05;14.80;;;9.10;;
60016;SDS011;45869;52.698;6.210;2023-04-21T09:24:31;15.48;;;9.02;;
60016;SDS011;45869;52.698;6.210;2023-04-21T09:26:57;14.55;;;9.45;;
60016;SDS011;45869;52.698;6.210;2023-04-21T09:29:24;13.88;;;8.65;;
60016;SDS011;45869;52.698;6.210;2023-04-21T09:31:50;11.55;;;8.88;;
60016;SDS011;45869;52.698;6.210;2023-04-21T09:34:17;13.73;;;9.15;;
60016;SDS011;45869;52.698;6.210;2023-04-21T09:36:44;15.07;;;9.18;;
60016;SDS011;45869;52.698;6.210;2023-04-21T09:39:11;16.40;;;9.40;;
60016;SDS011;45869;52.698;6.210;2023-04-21T09:41:37;16.60;;;8.57;;
60016;SDS011;45869;52.698;6.210;2023-04-21T09:44:03;12.95;;;9.30;;
60016;SDS011;45869;52.698;6.210;2023-04-21T09:46:33;14.65;;;9.57;;
60016;SDS011;45869;52.698;6.210;2023-04-21T09:49:00;16.33;;;9.85;;
60016;SDS011;45869;52.698;6.210;2023-04-21T09:51:26;12.80;;;8.68;;
60016;SDS011;45869;52.698;6.210;2023-04-21T09:53:53;12.60;;;9.40;;
60016;SDS011;45869;52.698;6.210;2023-04-21T09:56:23;13.75;;;9.82;;
60016;SDS011;45869;52.698;6.210;2023-04-21T09:58:51;19.58;;;9.52;;
60016;SDS011;45869;52.698;6.210;2023-04-21T10:01:17;16.33;;;10.30;;
60016;SDS011;45869;52.698;6.210;2023-04-21T10:03:44;15.00;;;10.80;;
60016;SDS011;45869;52.698;6.210;2023-04-21T10:06:12;12.55;;;9.75;;
60016;SDS011;45869;52.698;6.210;2023-04-21T10:08:38;22.17;;;10.88;;
60016;SDS011;45869;52.698;6.210;2023-04-21T10:11:04;13.40;;;9.63;;
60016;SDS011;45869;52.698;6.210;2023-04-21T10:13:31;14.88;;;10.10;;
60016;SDS011;45869;52.698;6.210;2023-04-21T10:16:03;17.45;;;10.85;;
60016;SDS011;45869;52.698;6.210;2023-04-21T10:18:31;16.77;;;10.75;;
60016;SDS011;45869;52.698;6.210;2023-04-21T10:26:00;14.77;;;9.77;;
60016;SDS011;45869;52.698;6.210;2023-04-21T10:28:47;14.50;;;10.10;;
60016;SDS011;45869;52.698;6.210;2023-04-21T10:49:51;14.90;;;10.63;;
60016;SDS011;45869;52.698;6.210;2023-04-21T10:52:17;17.13;;;10.75;;
60016;SDS011;45869;52.698;6.210;2023-04-21T10:57:14;12.23;;;9.35;;
60016;SDS011;45869;52.698;6.210;2023-04-21T10:59:41;14.90;;;10.13;;
60016;SDS011;45869;52.698;6.210;2023-04-21T11:02:10;15.10;;;9.90;;
60016;SDS011;45869;52.698;6.210;2023-04-21T11:04:37;15.30;;;10.40;;
60016;SDS011;45869;52.698;6.210;2023-04-21T11:07:12;14.82;;;10.35;;
60016;SDS011;45869;52.698;6.210;2023-04-21T11:09:39;12.90;;;9.70;;
60016;SDS011;45869;52.698;6.210;2023-04-21T11:12:06;14.70;;;10.02;;
60016;SDS011;45869;52.698;6.210;2023-04-21T11:14:37;16.17;;;10.43;;
60016;SDS011;45869;52.698;6.210;2023-04-21T11:17:04;15.63;;;10.13;;
60016;SDS011;45869;52.698;6.210;2023-04-21T11:19:39;14.57;;;9.80;;
60016;SDS011;45869;52.698;6.210;2023-04-21T11:22:05;17.60;;;9.80;;
60016;SDS011;45869;52.698;6.210;2023-04-21T11:24:31;12.63;;;9.90;;
60016;SDS011;45869;52.698;6.210;2023-04-21T11:26:58;14.57;;;10.43;;
60016;SDS011;45869;52.698;6.210;2023-04-21T11:29:28;13.30;;;9.73;;
60016;SDS011;45869;52.698;6.210;2023-04-21T11:31:54;14.65;;;9.90;;
60016;SDS011;45869;52.698;6.210;2023-04-21T11:34:20;14.27;;;9.05;;
60016;SDS011;45869;52.698;6.210;2023-04-21T11:36:49;17.05;;;10.45;;
60016;SDS011;45869;52.698;6.210;2023-04-21T11:39:15;13.88;;;9.65;;
60016;SDS011;45869;52.698;6.210;2023-04-21T11:41:45;14.88;;;10.50;;
60016;SDS011;45869;52.698;6.210;2023-04-21T11:44:12;14.25;;;10.10;;
60016;SDS011;45869;52.698;6.210;2023-04-21T11:46:44;17.05;;;10.80;;
60016;SDS011;45869;52.698;6.210;2023-04-21T11:49:10;14.45;;;10.43;;
60016;SDS011;45869;52.698;6.210;2023-04-21T11:51:40;14.77;;;10.38;;
60016;SDS011;45869;52.698;6.210;2023-04-21T11:54:07;14.82;;;10.88;;
60016;SDS011;45869;52.698;6.210;2023-04-21T11:56:49;14.57;;;10.90;;
60016;SDS011;45869;52.698;6.210;2023-04-21T11:59:21;15.40;;;10.85;;
60016;SDS011;45869;52.698;6.210;2023-04-21T12:01:51;14.73;;;10.73;;
60016;SDS011;45869;52.698;6.210;2023-04-21T12:04:20;16.00;;;10.25;;
60016;SDS011;45869;52.698;6.210;2023-04-21T12:06:54;14.30;;;11.02;;
60016;SDS011;45869;52.698;6.210;2023-04-21T12:09:21;12.55;;;10.25;;
60016;SDS011;45869;52.698;6.210;2023-04-21T12:11:47;16.52;;;11.05;;
60016;SDS011;45869;52.698;6.210;2023-04-21T12:14:14;15.90;;;10.45;;
60016;SDS011;45869;52.698;6.210;2023-04-21T12:16:41;16.40;;;11.05;;
60016;SDS011;45869;52.698;6.210;2023-04-21T12:19:20;13.88;;;9.82;;
60016;SDS011;45869;52.698;6.210;2023-04-21T12:21:53;14.88;;;10.65;;
60016;SDS011;45869;52.698;6.210;2023-04-21T12:24:22;15.80;;;10.52;;
60016;SDS011;45869;52.698;6.210;2023-04-21T12:26:48;17.05;;;11.30;;
60016;SDS011;45869;52.698;6.210;2023-04-21T12:29:17;14.73;;;10.88;;
60016;SDS011;45869;52.698;6.210;2023-04-21T12:31:43;21.48;;;10.43;;
60016;SDS011;45869;52.698;6.210;2023-04-21T12:34:09;16.25;;;10.50;;
60016;SDS011;45869;52.698;6.210;2023-04-21T12:36:35;18.35;;;10.90;;
60016;SDS011;45869;52.698;6.210;2023-04-21T12:39:04;14.00;;;10.68;;
60016;SDS011;45869;52.698;6.210;2023-04-21T12:41:31;15.65;;;11.55;;
60016;SDS011;45869;52.698;6.210;2023-04-21T12:43:58;13.43;;;11.15;;
60016;SDS011;45869;52.698;6.210;2023-04-21T12:46:24;16.17;;;10.77;;
60016;SDS011;45869;52.698;6.210;2023-04-21T12:49:11;13.20;;;10.10;;
60016;SDS011;45869;52.698;6.210;2023-04-21T12:51:41;15.35;;;10.43;;
60016;SDS011;45869;52.698;6.210;2023-04-21T12:54:10;15.45;;;11.00;;
60016;SDS011;45869;52.698;6.210;2023-04-21T12:56:37;16.90;;;11.57;;
60016;SDS011;45869;52.698;6.210;2023-04-21T12:59:07;16.58;;;11.30;;
60016;SDS011;45869;52.698;6.210;2023-04-21T13:01:34;12.50;;;10.05;;
60016;SDS011;45869;52.698;6.210;2023-04-21T13:04:01;15.43;;;10.45;;
60016;SDS011;45869;52.698;6.210;2023-04-21T13:06:27;11.88;;;9.32;;
60016;SDS011;45869;52.698;6.210;2023-04-21T13:08:53;21.30;;;11.60;;
60016;SDS011;45869;52.698;6.210;2023-04-21T13:11:19;13.30;;;10.25;;
60016;SDS011;45869;52.698;6.210;2023-04-21T13:13:45;14.93;;;10.48;;
60016;SDS011;45869;52.698;6.210;2023-04-21T13:16:12;13.20;;;10.10;;
60016;SDS011;45869;52.698;6.210;2023-04-21T13:18:38;15.27;;;10.13;;
60016;SDS011;45869;52.698;6.210;2023-04-21T13:21:04;13.70;;;10.90;;
60016;SDS011;45869;52.698;6.210;2023-04-21T13:23:30;16.35;;;10.65;;
60016;SDS011;45869;52.698;6.210;2023-04-21T13:26:05;13.48;;;10.20;;
60016;SDS011;45869;52.698;6.210;2023-04-21T13:28:32;12.98;;;9.95;;
60016;SDS011;45869;52.698;6.210;2023-04-21T13:30:57;13.65;;;9.95;;
60016;SDS011;45869;52.698;6.210;2023-04-21T13:33:24;12.77;;;10.43;;
60016;SDS011;45869;52.698;6.210;2023-04-21T13:35:50;15.00;;;9.88;;
60016;SDS011;45869;52.698;6.210;2023-04-21T13:38:16;13.38;;;9.68;;
60016;SDS011;45869;52.698;6.210;2023-04-21T13:40:42;13.27;;;10.15;;
60016;SDS011;45869;52.698;6.210;2023-04-21T13:43:12;12.25;;;9.85;;
60016;SDS011;45869;52.698;6.210;2023-04-21T13:45:38;12.23;;;8.93;;
60016;SDS011;45869;52.698;6.210;2023-04-21T13:48:05;12.82;;;9.38;;
60016;SDS011;45869;52.698;6.210;2023-04-21T13:50:31;12.70;;;8.75;;
60016;SDS011;45869;52.698;6.210;2023-04-21T13:52:57;14.80;;;8.88;;
60016;SDS011;45869;52.698;6.210;2023-04-21T13:55:23;14.57;;;8.05;;
60016;SDS011;45869;52.698;6.210;2023-04-21T13:57:49;13.98;;;8.68;;
60016;SDS011;45869;52.698;6.210;2023-04-21T14:00:15;11.55;;;7.88;;
60016;SDS011;45869;52.698;6.210;2023-04-21T14:02:42;15.20;;;8.13;;
60016;SDS011;45869;52.698;6.210;2023-04-21T14:05:08;12.55;;;8.48;;
60016;SDS011;45869;52.698;6.210;2023-04-21T14:07:34;10.75;;;7.80;;
60016;SDS011;45869;52.698;6.210;2023-04-21T14:10:00;11.52;;;8.15;;
60016;SDS011;45869;52.698;6.210;2023-04-21T14:12:26;14.50;;;8.65;;
60016;SDS011;45869;52.698;6.210;2023-04-21T14:14:52;11.30;;;8.23;;
60016;SDS011;45869;52.698;6.210;2023-04-21T14:17:19;12.18;;;8.88;;
60016;SDS011;45869;52.698;6.210;2023-04-21T14:19:45;12.65;;;8.45;;
60016;SDS011;45869;52.698;6.210;2023-04-21T14:22:11;12.68;;;8.52;;
60016;SDS011;45869;52.698;6.210;2023-04-21T14:24:37;11.07;;;7.80;;
60016;SDS011;45869;52.698;6.210;2023-04-21T14:27:09;10.98;;;8.55;;
60016;SDS011;45869;52.698;6.210;2023-04-21T14:29:38;11.95;;;7.90;;
60016;SDS011;45869;52.698;6.210;2023-04-21T14:32:04;15.30;;;8.38;;
60016;SDS011;45869;52.698;6.210;2023-04-21T14:34:30;15.75;;;8.55;;
60016;SDS011;45869;52.698;6.210;2023-04-21T14:36:56;13.00;;;8.10;;
60016;SDS011;45869;52.698;6.210;2023-04-21T14:39:23;12.30;;;7.93;;
60016;SDS011;45869;52.698;6.210;2023-04-21T14:41:49;11.52;;;7.68;;
60016;SDS011;45869;52.698;6.210;2023-04-21T14:44:15;9.38;;;7.15;;
60016;SDS011;45869;52.698;6.210;2023-04-21T14:46:42;13.43;;;7.68;;
60016;SDS011;45869;52.698;6.210;2023-04-21T14:49:08;13.07;;;7.85;;
60016;SDS011;45869;52.698;6.210;2023-04-21T14:51:34;13.85;;;7.80;;